createdAt,value
2022-09-15T10:58:28.464Z,100914.13
2022-09-15T11:01:04.164Z,100903.47
2022-09-15T11:03:48.935Z,100915.94
2022-09-15T11:06:35.890Z,100905.56
2022-09-15T11:09:05.880Z,100916.38
2022-09-15T11:11:38.722Z,100905.19
2022-09-15T11:14:27.646Z,100908.53
2022-09-15T11:17:16.298Z,100904.25
2022-09-15T11:19:46.626Z,100900.44
2022-09-15T11:22:16.541Z,100895.00
2022-09-15T11:24:47.780Z,100907.13
2022-09-15T12:07:28.622Z,100898.84
2022-09-15T12:17:32.555Z,100902.38
2022-09-15T12:23:01.343Z,100889.69
2022-09-15T12:26:14.593Z,100900.72
2022-09-15T12:28:56.409Z,100874.81
2022-09-15T12:31:25.964Z,100903.38
2022-09-15T12:34:03.938Z,100899.41
2022-09-15T12:36:47.625Z,100900.50
2022-09-15T12:39:21.689Z,100890.88
2022-09-15T12:42:02.730Z,100900.72
2022-09-15T12:44:45.070Z,100890.50
2022-09-15T12:47:32.313Z,100886.44
2022-09-15T12:50:15.179Z,100879.09
2022-09-15T12:52:50.217Z,100897.44
2022-09-15T12:55:31.864Z,100895.84
2022-09-15T12:58:11.133Z,100886.81
2022-09-15T13:01:14.262Z,100877.50
2022-09-15T13:06:22.618Z,100893.97
2022-09-15T13:09:01.667Z,100877.47
2022-09-15T13:11:37.451Z,100884.75
2022-09-15T13:14:06.960Z,100887.00
2022-09-15T13:16:52.573Z,100880.09
2022-09-15T13:19:22.662Z,100870.66
2022-09-15T13:22:11.687Z,100869.94
2022-09-15T13:24:59.030Z,100876.72
2022-09-15T13:27:37.477Z,100861.81
2022-09-15T13:30:16.473Z,100864.78
2022-09-15T13:33:03.835Z,100860.81
2022-09-15T13:35:39.671Z,100861.81
2022-09-15T13:38:27.844Z,100842.75
2022-09-15T13:41:22.634Z,100835.91
2022-09-15T13:44:13.923Z,100848.31
2022-09-15T13:47:02.286Z,100839.47
2022-09-15T13:49:47.963Z,100840.78
2022-09-15T13:52:24.327Z,100841.78
2022-09-15T13:55:19.798Z,100812.31
2022-09-15T14:01:02.463Z,100819.16
2022-09-15T14:03:47.939Z,100839.22
2022-09-15T14:06:37.339Z,100821.16
2022-09-15T14:09:29.287Z,100828.47
2022-09-15T14:12:03.101Z,100822.94
2022-09-15T14:14:51.793Z,100814.22
2022-09-15T14:17:24.847Z,100811.94
2022-09-15T14:19:55.108Z,100794.78
2022-09-15T14:22:26.780Z,100815.88
2022-09-15T14:25:00.257Z,100790.41
2022-09-15T14:27:34.057Z,100800.72
2022-09-15T14:30:09.682Z,100788.78
2022-09-15T14:32:44.279Z,100789.41
2022-09-15T14:35:19.763Z,100789.69
2022-09-15T14:37:56.087Z,100788.06
2022-09-15T14:40:35.303Z,100781.34
2022-09-15T14:43:03.409Z,100778.63
2022-09-15T14:45:56.728Z,100787.34
2022-09-15T14:48:28.338Z,100769.69
2022-09-15T14:51:25.843Z,100770.88
2022-09-15T14:53:58.825Z,100777.50
2022-09-15T14:56:31.508Z,100777.13
2022-09-15T14:59:03.730Z,100777.88
2022-09-15T15:02:00.769Z,100764.19
2022-09-15T15:04:40.503Z,100765.38
2022-09-15T15:07:23.307Z,100776.78
2022-09-15T15:09:59.316Z,100776.00
2022-09-15T15:12:37.548Z,100777.97
2022-09-15T15:15:06.295Z,100762.41
2022-09-15T15:17:45.618Z,100771.75
2022-09-15T15:20:18.015Z,100767.94
2022-09-15T15:22:46.555Z,100762.22
2022-09-15T15:25:28.474Z,100761.63
2022-09-15T15:28:00.705Z,100776.06
2022-09-15T15:30:35.484Z,100768.59
2022-09-15T15:33:05.515Z,100757.88
2022-09-15T15:35:35.957Z,100755.78
2022-09-15T15:38:06.781Z,100759.66
2022-09-15T15:40:58.067Z,100762.25
2022-09-15T15:43:32.173Z,100766.66
2022-09-15T15:46:03.445Z,100753.38
2022-09-15T15:48:38.336Z,100759.97
2022-09-15T15:51:07.363Z,100754.03
2022-09-15T15:53:35.003Z,100756.00
2022-09-15T15:56:02.322Z,100752.22
2022-09-15T15:58:29.322Z,100742.03
2022-09-15T16:00:57.770Z,100758.66
2022-09-15T16:03:25.936Z,100741.63
2022-09-15T16:05:57.548Z,100731.66
2022-09-15T16:08:28.381Z,100748.09
2022-09-15T16:10:56.648Z,100730.00
2022-09-15T16:13:25.501Z,100752.50
2022-09-15T16:16:01.313Z,100750.13
2022-09-15T16:18:33.236Z,100749.66
2022-09-15T16:21:00.449Z,100743.63
2022-09-15T16:23:28.207Z,100745.44
2022-09-15T16:26:03.819Z,100754.00
2022-09-15T16:28:36.946Z,100738.34
2022-09-15T16:31:04.760Z,100745.97
2022-09-15T16:33:36.013Z,100736.91
2022-09-15T16:36:09.201Z,100731.56
2022-09-15T16:38:37.065Z,100750.47
2022-09-15T16:41:28.443Z,100747.75
2022-09-15T16:43:56.241Z,100753.28
2022-09-15T16:46:23.910Z,100752.44
2022-09-15T16:48:52.108Z,100736.16
2022-09-15T16:51:29.511Z,100760.38
2022-09-15T16:53:58.509Z,100747.47
2022-09-15T16:56:25.802Z,100748.47
2022-09-15T16:58:58.895Z,100756.66
2022-09-15T17:01:27.155Z,100766.78
2022-09-15T17:03:54.308Z,100758.09
2022-09-15T17:06:22.403Z,100729.69
2022-09-15T17:08:49.884Z,100748.66
2022-09-15T17:11:19.505Z,100752.38
2022-09-15T17:13:47.595Z,100755.22
2022-09-15T17:16:17.965Z,100738.84
2022-09-15T17:18:45.328Z,100761.63
2022-09-15T17:21:13.421Z,100764.09
2022-09-15T17:23:44.397Z,100758.59
2022-09-15T17:26:14.591Z,100768.38
2022-09-15T17:28:42.567Z,100753.16
2022-09-15T17:31:15.200Z,100760.53
2022-09-15T17:33:42.731Z,100768.81
2022-09-15T17:36:10.116Z,100766.16
2022-09-15T17:38:37.314Z,100766.16
2022-09-15T17:41:04.638Z,100767.56
2022-09-15T17:43:35.183Z,100749.22
2022-09-15T17:46:02.627Z,100771.09
2022-09-15T17:48:29.796Z,100772.50
2022-09-15T17:50:57.165Z,100779.53
2022-09-15T17:53:28.925Z,100774.06
2022-09-15T17:55:56.904Z,100797.53
2022-09-15T17:58:27.024Z,100776.44
2022-09-15T18:00:54.766Z,100775.31
2022-09-15T18:03:31.217Z,100784.28
2022-09-15T18:06:00.321Z,100794.81
2022-09-15T18:09:03.655Z,100799.81
2022-09-15T18:17:55.715Z,100802.59
2022-09-15T18:23:40.771Z,100812.72
2022-09-15T18:26:28.176Z,100830.09
2022-09-15T18:28:57.378Z,100808.13
2022-09-15T18:31:39.132Z,100796.88
2022-09-15T18:34:08.028Z,100820.28
2022-09-15T18:36:40.857Z,100809.91
2022-09-15T18:39:11.559Z,100806.75
2022-09-15T18:41:39.665Z,100802.03
2022-09-15T18:44:33.562Z,100829.44
2022-09-15T18:47:14.257Z,100833.09
2022-09-15T18:49:50.140Z,100825.63
2022-09-15T18:52:30.037Z,100824.44
2022-09-15T18:55:01.879Z,100832.56
2022-09-15T19:00:41.198Z,100835.13
2022-09-15T19:03:10.232Z,100844.47
2022-09-15T19:09:56.580Z,100860.66
2022-09-15T19:12:58.764Z,100870.47
2022-09-15T19:15:44.356Z,100832.38
2022-09-15T19:18:14.282Z,100871.75
2022-09-15T19:21:40.199Z,100852.88
2022-09-15T19:24:07.738Z,100870.22
2022-09-15T19:26:45.123Z,100857.09
2022-09-15T19:29:45.138Z,100847.47
2022-09-15T19:32:21.986Z,100839.84
2022-09-15T20:02:27.661Z,100881.78
2022-09-15T20:05:07.564Z,100876.63
2022-09-15T20:08:21.068Z,100846.81
2022-09-15T20:10:51.223Z,100877.41
2022-09-15T20:13:19.010Z,100856.47
2022-09-15T20:16:03.763Z,100887.50
2022-09-15T20:18:32.937Z,100900.06
2022-09-15T20:21:00.898Z,100865.84
2022-09-15T20:23:29.409Z,100906.94
2022-09-15T20:26:02.500Z,100890.81
2022-09-15T20:28:31.144Z,100899.69
2022-09-15T20:31:16.833Z,100882.06
2022-09-15T20:33:48.588Z,100899.78
2022-09-15T20:39:01.854Z,100910.25
2022-09-15T20:41:34.647Z,100902.25
2022-09-15T20:44:12.999Z,100910.34
2022-09-15T20:46:41.032Z,100912.00
2022-09-15T20:49:11.114Z,100932.19
2022-09-15T20:51:39.602Z,100924.94
2022-09-15T20:54:08.171Z,100919.75
2022-09-15T20:56:44.352Z,100916.56
2022-09-15T20:59:14.176Z,100924.63
2022-09-15T21:01:44.468Z,100925.84
2022-09-15T21:04:13.248Z,100929.06
2022-09-15T21:06:44.383Z,100927.06
2022-09-15T21:09:11.755Z,100923.44
2022-09-15T21:11:43.665Z,100926.28
2022-09-15T21:14:15.667Z,100927.53
2022-09-15T21:19:26.757Z,100921.50
2022-09-15T21:21:58.056Z,100923.53
2022-09-15T21:24:25.456Z,100923.53
2022-09-15T21:27:45.231Z,100900.16
2022-09-15T21:30:15.363Z,100921.91
2022-09-15T21:32:42.961Z,100922.28
2022-09-15T21:35:10.230Z,100921.81
2022-09-15T21:37:37.494Z,100922.59
2022-09-15T21:40:05.648Z,100914.56
2022-09-15T21:42:37.077Z,100912.94
2022-09-15T21:45:04.607Z,100916.56
2022-09-15T21:47:34.334Z,100916.56
2022-09-15T21:50:09.010Z,100916.94
2022-09-15T21:52:36.426Z,100916.13
2022-09-15T21:55:03.620Z,100910.47
2022-09-15T21:57:30.808Z,100902.84
